Homes, New York
Current Conditions -  °F | °C
As of 4:53 AM on Saturday 01 Nov 2014 (Local Time) from KPOU Reporting Station
Overcast Overcast  
Wind Chill: 42°   Ceiling: 4400
Heat Index: 45°   Visibility: 10mi
Dew Point: 41°   Wind: 6mph
Humidity: 86%   Direction: 360°N
Pressure: 29.87"   Gusts: NA
Location:  41.5306°N, 73.6674°W
Report Text: KPOU 010853Z AUTO 36005KT 10SM OVC044 07/05 A2987 RMK AO2 RAE0757 SLP112 P0000 60003 T00720050 56012 TSNO
Loading
Personal Weather Stations






























Interactive Weather Map
Tropical Storm Tracking
New forecast layout! Learn more

10-Day Weather Forecast

Advertisements
Track Severe Weather on mobile